sensor_id;sensor_type;location;lat;lon;timestamp;P1;durP1;ratioP1;P2;durP2;ratioP2
74177;SDS011;62540;48.456;-4.456;2023-05-18T00:01:06;10.25;;;9.00;;
74177;SDS011;62540;48.456;-4.456;2023-05-18T00:03:31;9.50;;;9.00;;
74177;SDS011;62540;48.456;-4.456;2023-05-18T00:05:57;10.25;;;9.50;;
74177;SDS011;62540;48.456;-4.456;2023-05-18T00:08:28;11.00;;;9.75;;
74177;SDS011;62540;48.456;-4.456;2023-05-18T00:10:55;5.25;;;5.25;;
74177;SDS011;62540;48.456;-4.456;2023-05-18T00:13:21;14.00;;;12.25;;
74177;SDS011;62540;48.456;-4.456;2023-05-18T00:15:46;10.00;;;9.00;;
74177;SDS011;62540;48.456;-4.456;2023-05-18T00:18:11;12.00;;;10.00;;
74177;SDS011;62540;48.456;-4.456;2023-05-18T00:20:37;9.50;;;9.00;;
74177;SDS011;62540;48.456;-4.456;2023-05-18T00:23:02;9.25;;;9.25;;
74177;SDS011;62540;48.456;-4.456;2023-05-18T00:25:28;13.75;;;10.00;;
74177;SDS011;62540;48.456;-4.456;2023-05-18T00:27:53;10.50;;;9.00;;
74177;SDS011;62540;48.456;-4.456;2023-05-18T00:30:18;15.50;;;12.25;;
74177;SDS011;62540;48.456;-4.456;2023-05-18T00:32:44;11.00;;;8.75;;
74177;SDS011;62540;48.456;-4.456;2023-05-18T00:35:10;11.00;;;10.50;;
74177;SDS011;62540;48.456;-4.456;2023-05-18T00:37:35;12.00;;;11.00;;
74177;SDS011;62540;48.456;-4.456;2023-05-18T00:40:01;11.00;;;9.25;;
74177;SDS011;62540;48.456;-4.456;2023-05-18T00:42:26;8.00;;;8.00;;
74177;SDS011;62540;48.456;-4.456;2023-05-18T00:44:51;11.00;;;10.75;;
74177;SDS011;62540;48.456;-4.456;2023-05-18T00:47:17;17.25;;;13.50;;
74177;SDS011;62540;48.456;-4.456;2023-05-18T00:49:44;11.25;;;10.25;;
74177;SDS011;62540;48.456;-4.456;2023-05-18T00:52:10;10.50;;;9.50;;
74177;SDS011;62540;48.456;-4.456;2023-05-18T00:54:35;10.50;;;9.50;;
74177;SDS011;62540;48.456;-4.456;2023-05-18T00:57:01;10.50;;;9.75;;
74177;SDS011;62540;48.456;-4.456;2023-05-18T00:59:27;15.00;;;12.75;;
74177;SDS011;62540;48.456;-4.456;2023-05-18T01:01:53;11.25;;;10.50;;
74177;SDS011;62540;48.456;-4.456;2023-05-18T01:04:18;10.00;;;9.00;;
74177;SDS011;62540;48.456;-4.456;2023-05-18T01:06:45;12.25;;;11.50;;
74177;SDS011;62540;48.456;-4.456;2023-05-18T01:09:11;12.00;;;10.25;;
74177;SDS011;62540;48.456;-4.456;2023-05-18T01:14:51;11.75;;;10.75;;
74177;SDS011;62540;48.456;-4.456;2023-05-18T01:23:28;12.50;;;9.75;;
74177;SDS011;62540;48.456;-4.456;2023-05-18T01:26:22;13.00;;;11.00;;
74177;SDS011;62540;48.456;-4.456;2023-05-18T01:28:53;8.00;;;7.00;;
74177;SDS011;62540;48.456;-4.456;2023-05-18T01:31:21;14.50;;;13.75;;
74177;SDS011;62540;48.456;-4.456;2023-05-18T01:33:46;10.25;;;10.25;;
74177;SDS011;62540;48.456;-4.456;2023-05-18T01:36:12;12.00;;;11.75;;
74177;SDS011;62540;48.456;-4.456;2023-05-18T01:38:37;13.50;;;10.50;;
74177;SDS011;62540;48.456;-4.456;2023-05-18T01:43:51;12.25;;;9.50;;
74177;SDS011;62540;48.456;-4.456;2023-05-18T01:48:48;11.50;;;10.75;;
74177;SDS011;62540;48.456;-4.456;2023-05-18T01:51:20;13.75;;;11.50;;
74177;SDS011;62540;48.456;-4.456;2023-05-18T01:53:56;10.75;;;10.75;;
74177;SDS011;62540;48.456;-4.456;2023-05-18T01:56:24;12.50;;;11.00;;
74177;SDS011;62540;48.456;-4.456;2023-05-18T01:58:51;9.75;;;8.75;;
74177;SDS011;62540;48.456;-4.456;2023-05-18T02:01:17;7.00;;;6.00;;
74177;SDS011;62540;48.456;-4.456;2023-05-18T02:03:44;11.75;;;11.00;;
74177;SDS011;62540;48.456;-4.456;2023-05-18T02:06:09;9.75;;;9.25;;
74177;SDS011;62540;48.456;-4.456;2023-05-18T02:08:35;12.00;;;10.25;;
74177;SDS011;62540;48.456;-4.456;2023-05-18T02:11:01;12.00;;;10.00;;
74177;SDS011;62540;48.456;-4.456;2023-05-18T02:13:27;9.75;;;8.75;;
74177;SDS011;62540;48.456;-4.456;2023-05-18T02:15:52;10.25;;;10.25;;
74177;SDS011;62540;48.456;-4.456;2023-05-18T02:18:18;12.50;;;10.50;;
74177;SDS011;62540;48.456;-4.456;2023-05-18T02:20:43;12.00;;;11.25;;
74177;SDS011;62540;48.456;-4.456;2023-05-18T02:23:12;10.50;;;9.75;;
74177;SDS011;62540;48.456;-4.456;2023-05-18T02:25:38;10.00;;;10.00;;
74177;SDS011;62540;48.456;-4.456;2023-05-18T02:28:03;10.00;;;9.75;;
74177;SDS011;62540;48.456;-4.456;2023-05-18T02:30:29;9.50;;;8.00;;
74177;SDS011;62540;48.456;-4.456;2023-05-18T02:32:57;12.00;;;9.50;;
74177;SDS011;62540;48.456;-4.456;2023-05-18T02:35:22;10.50;;;10.25;;
74177;SDS011;62540;48.456;-4.456;2023-05-18T02:37:48;11.00;;;10.75;;
74177;SDS011;62540;48.456;-4.456;2023-05-18T02:40:14;13.00;;;11.75;;
74177;SDS011;62540;48.456;-4.456;2023-05-18T02:42:40;12.50;;;11.00;;
74177;SDS011;62540;48.456;-4.456;2023-05-18T02:45:06;10.50;;;9.75;;
74177;SDS011;62540;48.456;-4.456;2023-05-18T02:47:32;12.25;;;8.00;;
74177;SDS011;62540;48.456;-4.456;2023-05-18T02:49:58;12.75;;;11.50;;
74177;SDS011;62540;48.456;-4.456;2023-05-18T02:52:23;12.25;;;11.75;;
74177;SDS011;62540;48.456;-4.456;2023-05-18T02:54:49;9.25;;;8.00;;
74177;SDS011;62540;48.456;-4.456;2023-05-18T02:57:18;7.75;;;5.50;;
74177;SDS011;62540;48.456;-4.456;2023-05-18T02:59:44;9.00;;;8.00;;
74177;SDS011;62540;48.456;-4.456;2023-05-18T03:02:10;12.75;;;11.00;;
74177;SDS011;62540;48.456;-4.456;2023-05-18T03:04:38;10.50;;;9.25;;
74177;SDS011;62540;48.456;-4.456;2023-05-18T03:07:03;11.50;;;10.50;;
74177;SDS011;62540;48.456;-4.456;2023-05-18T03:09:31;13.50;;;12.50;;
74177;SDS011;62540;48.456;-4.456;2023-05-18T03:11:56;7.25;;;6.25;;
74177;SDS011;62540;48.456;-4.456;2023-05-18T03:14:22;12.00;;;11.00;;
74177;SDS011;62540;48.456;-4.456;2023-05-18T03:16:47;10.00;;;8.50;;
74177;SDS011;62540;48.456;-4.456;2023-05-18T03:19:17;10.75;;;9.50;;
74177;SDS011;62540;48.456;-4.456;2023-05-18T03:21:43;11.00;;;10.50;;
74177;SDS011;62540;48.456;-4.456;2023-05-18T03:24:08;11.00;;;9.25;;
74177;SDS011;62540;48.456;-4.456;2023-05-18T03:26:33;6.50;;;6.00;;
74177;SDS011;62540;48.456;-4.456;2023-05-18T03:28:59;10.00;;;9.00;;
74177;SDS011;62540;48.456;-4.456;2023-05-18T03:31:25;9.50;;;8.75;;
74177;SDS011;62540;48.456;-4.456;2023-05-18T03:33:51;7.50;;;7.00;;
74177;SDS011;62540;48.456;-4.456;2023-05-18T03:36:16;9.50;;;8.75;;
74177;SDS011;62540;48.456;-4.456;2023-05-18T03:38:42;11.00;;;8.00;;
74177;SDS011;62540;48.456;-4.456;2023-05-18T03:41:11;8.00;;;8.00;;
74177;SDS011;62540;48.456;-4.456;2023-05-18T03:43:36;7.25;;;7.25;;
74177;SDS011;62540;48.456;-4.456;2023-05-18T03:46:02;9.75;;;7.75;;
74177;SDS011;62540;48.456;-4.456;2023-05-18T03:48:27;4.75;;;1.50;;
74177;SDS011;62540;48.456;-4.456;2023-05-18T03:50:53;9.00;;;8.00;;
74177;SDS011;62540;48.456;-4.456;2023-05-18T03:53:19;6.75;;;5.00;;
74177;SDS011;62540;48.456;-4.456;2023-05-18T03:55:45;8.75;;;7.25;;
74177;SDS011;62540;48.456;-4.456;2023-05-18T03:58:13;9.50;;;9.00;;
74177;SDS011;62540;48.456;-4.456;2023-05-18T04:00:38;11.00;;;9.50;;
74177;SDS011;62540;48.456;-4.456;2023-05-18T04:03:04;11.50;;;10.50;;
74177;SDS011;62540;48.456;-4.456;2023-05-18T04:05:30;11.50;;;9.00;;
74177;SDS011;62540;48.456;-4.456;2023-05-18T04:07:55;11.25;;;10.50;;
74177;SDS011;62540;48.456;-4.456;2023-05-18T04:10:21;8.75;;;8.75;;
74177;SDS011;62540;48.456;-4.456;2023-05-18T04:12:47;11.25;;;11.00;;
74177;SDS011;62540;48.456;-4.456;2023-05-18T04:15:12;9.50;;;8.50;;
74177;SDS011;62540;48.456;-4.456;2023-05-18T04:17:41;11.25;;;9.00;;
74177;SDS011;62540;48.456;-4.456;2023-05-18T04:20:10;10.00;;;9.75;;
74177;SDS011;62540;48.456;-4.456;2023-05-18T04:22:44;11.00;;;10.00;;
74177;SDS011;62540;48.456;-4.456;2023-05-18T04:25:11;10.25;;;10.00;;
74177;SDS011;62540;48.456;-4.456;2023-05-18T04:27:39;10.00;;;9.50;;
74177;SDS011;62540;48.456;-4.456;2023-05-18T04:30:06;10.00;;;9.00;;
74177;SDS011;62540;48.456;-4.456;2023-05-18T04:32:34;12.00;;;10.00;;
74177;SDS011;62540;48.456;-4.456;2023-05-18T04:35:01;9.25;;;7.75;;
74177;SDS011;62540;48.456;-4.456;2023-05-18T04:37:28;13.50;;;12.00;;
74177;SDS011;62540;48.456;-4.456;2023-05-18T04:39:53;9.75;;;9.75;;
74177;SDS011;62540;48.456;-4.456;2023-05-18T04:42:19;10.00;;;10.00;;
74177;SDS011;62540;48.456;-4.456;2023-05-18T04:44:44;10.75;;;9.75;;
74177;SDS011;62540;48.456;-4.456;2023-05-18T04:47:10;9.00;;;8.50;;
74177;SDS011;62540;48.456;-4.456;2023-05-18T04:49:36;10.00;;;9.00;;
74177;SDS011;62540;48.456;-4.456;2023-05-18T04:52:01;11.25;;;9.25;;
74177;SDS011;62540;48.456;-4.456;2023-05-18T04:54:27;9.75;;;9.75;;
74177;SDS011;62540;48.456;-4.456;2023-05-18T04:56:55;9.50;;;9.00;;
74177;SDS011;62540;48.456;-4.456;2023-05-18T04:59:21;9.50;;;8.25;;
74177;SDS011;62540;48.456;-4.456;2023-05-18T05:01:50;7.75;;;7.00;;
74177;SDS011;62540;48.456;-4.456;2023-05-18T05:04:19;9.00;;;9.00;;
74177;SDS011;62540;48.456;-4.456;2023-05-18T05:06:45;8.75;;;8.00;;
74177;SDS011;62540;48.456;-4.456;2023-05-18T05:09:10;9.25;;;8.75;;
74177;SDS011;62540;48.456;-4.456;2023-05-18T05:11:38;11.75;;;9.75;;
74177;SDS011;62540;48.456;-4.456;2023-05-18T05:14:04;8.75;;;8.00;;
74177;SDS011;62540;48.456;-4.456;2023-05-18T05:16:29;11.00;;;9.50;;
74177;SDS011;62540;48.456;-4.456;2023-05-18T05:18:55;9.75;;;9.75;;
74177;SDS011;62540;48.456;-4.456;2023-05-18T05:21:20;3.50;;;3.50;;
74177;SDS011;62540;48.456;-4.456;2023-05-18T05:23:46;10.75;;;9.25;;
74177;SDS011;62540;48.456;-4.456;2023-05-18T05:26:11;11.25;;;9.50;;
74177;SDS011;62540;48.456;-4.456;2023-05-18T05:28:36;11.25;;;10.75;;
74177;SDS011;62540;48.456;-4.456;2023-05-18T05:31:02;11.75;;;10.00;;
74177;SDS011;62540;48.456;-4.456;2023-05-18T05:33:27;11.50;;;11.25;;
74177;SDS011;62540;48.456;-4.456;2023-05-18T05:35:53;9.00;;;8.00;;
74177;SDS011;62540;48.456;-4.456;2023-05-18T05:38:18;10.50;;;10.50;;
74177;SDS011;62540;48.456;-4.456;2023-05-18T05:40:43;10.00;;;9.00;;
74177;SDS011;62540;48.456;-4.456;2023-05-18T05:43:09;10.00;;;9.75;;
74177;SDS011;62540;48.456;-4.456;2023-05-18T05:45:34;10.50;;;10.00;;
74177;SDS011;62540;48.456;-4.456;2023-05-18T05:48:00;14.00;;;11.25;;
74177;SDS011;62540;48.456;-4.456;2023-05-18T05:50:25;12.25;;;11.00;;
74177;SDS011;62540;48.456;-4.456;2023-05-18T05:52:54;11.00;;;11.00;;
74177;SDS011;62540;48.456;-4.456;2023-05-18T05:55:20;12.00;;;11.00;;
74177;SDS011;62540;48.456;-4.456;2023-05-18T05:57:46;11.00;;;11.00;;
74177;SDS011;62540;48.456;-4.456;2023-05-18T06:00:12;14.00;;;14.00;;
74177;SDS011;62540;48.456;-4.456;2023-05-18T06:02:38;14.00;;;12.50;;
74177;SDS011;62540;48.456;-4.456;2023-05-18T06:05:05;16.25;;;14.75;;
74177;SDS011;62540;48.456;-4.456;2023-05-18T06:07:32;14.50;;;13.75;;
74177;SDS011;62540;48.456;-4.456;2023-05-18T06:09:57;13.50;;;13.50;;
74177;SDS011;62540;48.456;-4.456;2023-05-18T06:12:23;13.00;;;12.00;;
74177;SDS011;62540;48.456;-4.456;2023-05-18T06:14:48;12.75;;;12.25;;
74177;SDS011;62540;48.456;-4.456;2023-05-18T06:17:16;17.00;;;14.50;;
74177;SDS011;62540;48.456;-4.456;2023-05-18T06:19:42;17.50;;;16.00;;
74177;SDS011;62540;48.456;-4.456;2023-05-18T06:22:07;13.75;;;12.50;;
74177;SDS011;62540;48.456;-4.456;2023-05-18T06:24:33;14.50;;;14.50;;
74177;SDS011;62540;48.456;-4.456;2023-05-18T06:26:58;15.75;;;13.00;;
74177;SDS011;62540;48.456;-4.456;2023-05-18T06:29:23;11.75;;;11.25;;
74177;SDS011;62540;48.456;-4.456;2023-05-18T06:31:49;13.25;;;11.25;;
74177;SDS011;62540;48.456;-4.456;2023-05-18T06:34:14;12.75;;;10.25;;
74177;SDS011;62540;48.456;-4.456;2023-05-18T06:36:40;16.50;;;14.50;;
74177;SDS011;62540;48.456;-4.456;2023-05-18T06:39:06;13.00;;;11.00;;
74177;SDS011;62540;48.456;-4.456;2023-05-18T06:41:32;15.00;;;14.00;;
74177;SDS011;62540;48.456;-4.456;2023-05-18T06:43:57;15.50;;;15.25;;
74177;SDS011;62540;48.456;-4.456;2023-05-18T06:46:24;16.50;;;13.75;;
74177;SDS011;62540;48.456;-4.456;2023-05-18T06:48:53;16.25;;;15.00;;
74177;SDS011;62540;48.456;-4.456;2023-05-18T06:51:19;18.00;;;16.00;;
74177;SDS011;62540;48.456;-4.456;2023-05-18T06:53:44;13.25;;;12.50;;
74177;SDS011;62540;48.456;-4.456;2023-05-18T06:56:10;22.25;;;20.25;;
74177;SDS011;62540;48.456;-4.456;2023-05-18T06:58:37;15.75;;;14.75;;
74177;SDS011;62540;48.456;-4.456;2023-05-18T07:01:05;15.25;;;14.00;;
74177;SDS011;62540;48.456;-4.456;2023-05-18T07:03:31;15.75;;;14.50;;
74177;SDS011;62540;48.456;-4.456;2023-05-18T07:05:57;13.50;;;12.50;;
74177;SDS011;62540;48.456;-4.456;2023-05-18T07:08:22;16.50;;;14.50;;
74177;SDS011;62540;48.456;-4.456;2023-05-18T07:10:49;11.25;;;10.75;;
74177;SDS011;62540;48.456;-4.456;2023-05-18T07:13:14;17.25;;;15.00;;
74177;SDS011;62540;48.456;-4.456;2023-05-18T07:15:40;15.25;;;15.25;;
74177;SDS011;62540;48.456;-4.456;2023-05-18T07:18:05;13.50;;;11.50;;
74177;SDS011;62540;48.456;-4.456;2023-05-18T07:20:30;14.75;;;13.50;;
74177;SDS011;62540;48.456;-4.456;2023-05-18T07:22:56;13.75;;;12.25;;
74177;SDS011;62540;48.456;-4.456;2023-05-18T07:25:22;14.75;;;12.25;;
74177;SDS011;62540;48.456;-4.456;2023-05-18T07:27:48;10.50;;;9.50;;
74177;SDS011;62540;48.456;-4.456;2023-05-18T07:30:16;9.75;;;7.25;;
74177;SDS011;62540;48.456;-4.456;2023-05-18T07:32:41;12.25;;;11.00;;
74177;SDS011;62540;48.456;-4.456;2023-05-18T07:35:09;8.75;;;8.50;;
74177;SDS011;62540;48.456;-4.456;2023-05-18T07:37:34;13.75;;;11.00;;
74177;SDS011;62540;48.456;-4.456;2023-05-18T07:40:00;14.25;;;12.25;;
74177;SDS011;62540;48.456;-4.456;2023-05-18T07:42:26;10.00;;;10.00;;
74177;SDS011;62540;48.456;-4.456;2023-05-18T07:44:52;15.25;;;10.25;;
74177;SDS011;62540;48.456;-4.456;2023-05-18T07:47:17;11.25;;;9.75;;
74177;SDS011;62540;48.456;-4.456;2023-05-18T07:49:45;14.75;;;13.00;;
74177;SDS011;62540;48.456;-4.456;2023-05-18T07:52:10;10.00;;;8.50;;
74177;SDS011;62540;48.456;-4.456;2023-05-18T07:54:36;10.75;;;10.25;;
74177;SDS011;62540;48.456;-4.456;2023-05-18T07:57:01;9.50;;;9.50;;
74177;SDS011;62540;48.456;-4.456;2023-05-18T07:59:28;11.50;;;8.75;;
74177;SDS011;62540;48.456;-4.456;2023-05-18T08:01:53;14.00;;;10.50;;
74177;SDS011;62540;48.456;-4.456;2023-05-18T08:04:19;12.75;;;10.25;;
74177;SDS011;62540;48.456;-4.456;2023-05-18T08:06:44;11.50;;;9.00;;
74177;SDS011;62540;48.456;-4.456;2023-05-18T08:09:09;13.25;;;12.25;;
74177;SDS011;62540;48.456;-4.456;2023-05-18T08:11:35;15.25;;;11.25;;
74177;SDS011;62540;48.456;-4.456;2023-05-18T08:14:01;9.75;;;9.75;;
74177;SDS011;62540;48.456;-4.456;2023-05-18T08:16:26;8.75;;;7.75;;
74177;SDS011;62540;48.456;-4.456;2023-05-18T08:18:51;12.25;;;10.00;;
74177;SDS011;62540;48.456;-4.456;2023-05-18T08:21:17;9.50;;;9.25;;
74177;SDS011;62540;48.456;-4.456;2023-05-18T08:23:42;12.50;;;11.00;;
74177;SDS011;62540;48.456;-4.456;2023-05-18T08:26:08;10.50;;;9.25;;
74177;SDS011;62540;48.456;-4.456;2023-05-18T08:28:33;7.00;;;6.50;;
74177;SDS011;62540;48.456;-4.456;2023-05-18T08:30:59;12.00;;;10.75;;
74177;SDS011;62540;48.456;-4.456;2023-05-18T08:33:24;9.25;;;8.75;;
74177;SDS011;62540;48.456;-4.456;2023-05-18T08:35:50;10.25;;;9.25;;
74177;SDS011;62540;48.456;-4.456;2023-05-18T08:38:15;7.00;;;5.75;;
74177;SDS011;62540;48.456;-4.456;2023-05-18T08:40:53;12.50;;;10.00;;
74177;SDS011;62540;48.456;-4.456;2023-05-18T08:43:25;12.00;;;10.00;;
74177;SDS011;62540;48.456;-4.456;2023-05-18T08:46:04;14.00;;;12.00;;
74177;SDS011;62540;48.456;-4.456;2023-05-18T08:48:37;11.00;;;9.50;;
74177;SDS011;62540;48.456;-4.456;2023-05-18T08:51:03;16.00;;;11.00;;
74177;SDS011;62540;48.456;-4.456;2023-05-18T08:53:32;12.00;;;10.50;;
74177;SDS011;62540;48.456;-4.456;2023-05-18T08:56:00;13.50;;;12.25;;
74177;SDS011;62540;48.456;-4.456;2023-05-18T08:58:33;9.50;;;9.50;;
74177;SDS011;62540;48.456;-4.456;2023-05-18T09:01:02;10.50;;;9.25;;
74177;SDS011;62540;48.456;-4.456;2023-05-18T09:03:28;11.00;;;10.00;;
74177;SDS011;62540;48.456;-4.456;2023-05-18T09:05:55;7.75;;;6.75;;
74177;SDS011;62540;48.456;-4.456;2023-05-18T09:08:23;10.50;;;8.00;;
74177;SDS011;62540;48.456;-4.456;2023-05-18T09:10:48;9.00;;;7.25;;
74177;SDS011;62540;48.456;-4.456;2023-05-18T09:13:15;6.00;;;5.25;;
74177;SDS011;62540;48.456;-4.456;2023-05-18T09:15:44;8.50;;;7.25;;
74177;SDS011;62540;48.456;-4.456;2023-05-18T09:18:10;9.00;;;8.00;;
74177;SDS011;62540;48.456;-4.456;2023-05-18T09:20:36;9.75;;;6.25;;
74177;SDS011;62540;48.456;-4.456;2023-05-18T09:23:01;8.00;;;7.25;;
74177;SDS011;62540;48.456;-4.456;2023-05-18T09:25:27;8.75;;;7.00;;
74177;SDS011;62540;48.456;-4.456;2023-05-18T09:27:56;10.50;;;8.00;;
74177;SDS011;62540;48.456;-4.456;2023-05-18T09:30:23;7.00;;;5.50;;
74177;SDS011;62540;48.456;-4.456;2023-05-18T09:32:48;7.75;;;7.00;;
74177;SDS011;62540;48.456;-4.456;2023-05-18T09:35:16;7.00;;;6.50;;
74177;SDS011;62540;48.456;-4.456;2023-05-18T09:37:42;7.00;;;7.00;;
74177;SDS011;62540;48.456;-4.456;2023-05-18T09:40:08;10.00;;;8.00;;
74177;SDS011;62540;48.456;-4.456;2023-05-18T09:42:34;8.00;;;7.00;;
74177;SDS011;62540;48.456;-4.456;2023-05-18T09:45:02;3.25;;;3.25;;
74177;SDS011;62540;48.456;-4.456;2023-05-18T09:47:49;8.00;;;7.00;;
74177;SDS011;62540;48.456;-4.456;2023-05-18T09:50:21;6.75;;;6.25;;
74177;SDS011;62540;48.456;-4.456;2023-05-18T09:52:47;7.25;;;7.00;;
74177;SDS011;62540;48.456;-4.456;2023-05-18T09:55:20;7.50;;;6.00;;
74177;SDS011;62540;48.456;-4.456;2023-05-18T09:57:46;9.50;;;7.75;;
74177;SDS011;62540;48.456;-4.456;2023-05-18T10:00:13;8.50;;;7.00;;
74177;SDS011;62540;48.456;-4.456;2023-05-18T10:02:41;11.00;;;9.25;;
74177;SDS011;62540;48.456;-4.456;2023-05-18T10:05:18;8.00;;;8.00;;
74177;SDS011;62540;48.456;-4.456;2023-05-18T10:07:44;7.50;;;7.25;;
74177;SDS011;62540;48.456;-4.456;2023-05-18T10:10:11;7.75;;;6.25;;
74177;SDS011;62540;48.456;-4.456;2023-05-18T10:12:39;6.75;;;6.25;;
74177;SDS011;62540;48.456;-4.456;2023-05-18T10:15:08;9.75;;;7.75;;
74177;SDS011;62540;48.456;-4.456;2023-05-18T10:17:34;11.25;;;8.00;;
74177;SDS011;62540;48.456;-4.456;2023-05-18T10:20:03;9.50;;;7.00;;
74177;SDS011;62540;48.456;-4.456;2023-05-18T10:22:34;1.25;;;0.75;;
74177;SDS011;62540;48.456;-4.456;2023-05-18T10:25:03;8.00;;;7.50;;
74177;SDS011;62540;48.456;-4.456;2023-05-18T10:27:31;7.50;;;6.50;;
74177;SDS011;62540;48.456;-4.456;2023-05-18T10:29:59;8.50;;;7.50;;
74177;SDS011;62540;48.456;-4.456;2023-05-18T10:32:28;10.25;;;8.25;;
74177;SDS011;62540;48.456;-4.456;2023-05-18T10:34:57;8.25;;;8.25;;
74177;SDS011;62540;48.456;-4.456;2023-05-18T10:37:24;8.25;;;6.50;;
74177;SDS011;62540;48.456;-4.456;2023-05-18T10:39:54;12.00;;;8.25;;
74177;SDS011;62540;48.456;-4.456;2023-05-18T10:42:20;7.75;;;7.25;;
74177;SDS011;62540;48.456;-4.456;2023-05-18T10:44:47;9.00;;;8.75;;
74177;SDS011;62540;48.456;-4.456;2023-05-18T10:47:16;11.25;;;8.25;;
74177;SDS011;62540;48.456;-4.456;2023-05-18T10:49:43;10.75;;;7.00;;
74177;SDS011;62540;48.456;-4.456;2023-05-18T10:52:12;13.00;;;8.50;;
74177;SDS011;62540;48.456;-4.456;2023-05-18T10:54:40;6.50;;;6.00;;
74177;SDS011;62540;48.456;-4.456;2023-05-18T10:57:06;8.00;;;7.25;;
74177;SDS011;62540;48.456;-4.456;2023-05-18T10:59:38;8.75;;;7.75;;
74177;SDS011;62540;48.456;-4.456;2023-05-18T11:02:06;8.50;;;8.00;;
74177;SDS011;62540;48.456;-4.456;2023-05-18T11:04:34;7.75;;;7.00;;
74177;SDS011;62540;48.456;-4.456;2023-05-18T11:07:02;7.50;;;6.50;;
74177;SDS011;62540;48.456;-4.456;2023-05-18T11:09:28;5.75;;;4.75;;
74177;SDS011;62540;48.456;-4.456;2023-05-18T11:11:58;7.00;;;7.00;;
74177;SDS011;62540;48.456;-4.456;2023-05-18T11:14:24;9.50;;;8.50;;
74177;SDS011;62540;48.456;-4.456;2023-05-18T11:16:51;6.75;;;5.50;;
74177;SDS011;62540;48.456;-4.456;2023-05-18T11:19:17;8.25;;;6.25;;
74177;SDS011;62540;48.456;-4.456;2023-05-18T11:27:08;8.75;;;7.00;;
74177;SDS011;62540;48.456;-4.456;2023-05-18T11:29:44;7.25;;;7.00;;
74177;SDS011;62540;48.456;-4.456;2023-05-18T11:32:24;8.50;;;7.25;;
74177;SDS011;62540;48.456;-4.456;2023-05-18T11:34:54;6.25;;;5.75;;
74177;SDS011;62540;48.456;-4.456;2023-05-18T11:40:04;11.50;;;9.00;;
74177;SDS011;62540;48.456;-4.456;2023-05-18T11:42:33;7.50;;;7.50;;
74177;SDS011;62540;48.456;-4.456;2023-05-18T11:45:09;8.25;;;7.25;;
74177;SDS011;62540;48.456;-4.456;2023-05-18T11:47:36;7.75;;;6.50;;
74177;SDS011;62540;48.456;-4.456;2023-05-18T11:50:07;9.25;;;8.50;;
74177;SDS011;62540;48.456;-4.456;2023-05-18T11:52:47;8.75;;;7.50;;
74177;SDS011;62540;48.456;-4.456;2023-05-18T11:55:16;8.00;;;7.25;;
74177;SDS011;62540;48.456;-4.456;2023-05-18T11:57:45;8.00;;;6.50;;
74177;SDS011;62540;48.456;-4.456;2023-05-18T12:00:12;6.00;;;5.75;;
74177;SDS011;62540;48.456;-4.456;2023-05-18T12:02:43;8.50;;;7.00;;
74177;SDS011;62540;48.456;-4.456;2023-05-18T12:05:10;7.75;;;6.50;;
74177;SDS011;62540;48.456;-4.456;2023-05-18T12:07:36;8.50;;;7.00;;
74177;SDS011;62540;48.456;-4.456;2023-05-18T12:10:03;10.75;;;7.50;;
74177;SDS011;62540;48.456;-4.456;2023-05-18T12:12:31;9.50;;;8.00;;
74177;SDS011;62540;48.456;-4.456;2023-05-18T12:15:19;10.75;;;9.25;;
74177;SDS011;62540;48.456;-4.456;2023-05-18T12:17:46;10.50;;;8.00;;
74177;SDS011;62540;48.456;-4.456;2023-05-18T12:20:16;8.00;;;8.00;;
74177;SDS011;62540;48.456;-4.456;2023-05-18T12:22:44;7.75;;;7.00;;
74177;SDS011;62540;48.456;-4.456;2023-05-18T12:25:13;8.75;;;8.50;;
74177;SDS011;62540;48.456;-4.456;2023-05-18T12:27:40;7.25;;;6.00;;
74177;SDS011;62540;48.456;-4.456;2023-05-18T12:30:11;0.25;;;0.00;;
74177;SDS011;62540;48.456;-4.456;2023-05-18T12:32:44;8.50;;;6.25;;
74177;SDS011;62540;48.456;-4.456;2023-05-18T12:35:20;9.75;;;9.00;;
74177;SDS011;62540;48.456;-4.456;2023-05-18T12:37:49;4.75;;;4.75;;
74177;SDS011;62540;48.456;-4.456;2023-05-18T12:40:16;9.25;;;7.75;;
74177;SDS011;62540;48.456;-4.456;2023-05-18T12:42:52;8.00;;;8.00;;
74177;SDS011;62540;48.456;-4.456;2023-05-18T12:45:19;6.75;;;6.25;;
74177;SDS011;62540;48.456;-4.456;2023-05-18T12:47:47;8.00;;;7.00;;
74177;SDS011;62540;48.456;-4.456;2023-05-18T12:50:18;9.75;;;8.00;;
74177;SDS011;62540;48.456;-4.456;2023-05-18T12:52:44;8.25;;;7.00;;
74177;SDS011;62540;48.456;-4.456;2023-05-18T12:55:14;6.25;;;5.50;;
74177;SDS011;62540;48.456;-4.456;2023-05-18T12:57:45;8.25;;;6.00;;
74177;SDS011;62540;48.456;-4.456;2023-05-18T13:00:43;7.50;;;6.75;;
74177;SDS011;62540;48.456;-4.456;2023-05-18T13:03:10;12.00;;;8.50;;
74177;SDS011;62540;48.456;-4.456;2023-05-18T13:05:38;7.00;;;7.00;;
74177;SDS011;62540;48.456;-4.456;2023-05-18T13:08:05;7.50;;;6.00;;
74177;SDS011;62540;48.456;-4.456;2023-05-18T13:10:31;8.00;;;7.00;;
74177;SDS011;62540;48.456;-4.456;2023-05-18T13:12:57;7.75;;;7.25;;
74177;SDS011;62540;48.456;-4.456;2023-05-18T13:15:27;8.00;;;6.25;;
74177;SDS011;62540;48.456;-4.456;2023-05-18T13:18:03;9.00;;;6.25;;
74177;SDS011;62540;48.456;-4.456;2023-05-18T13:22:58;10.50;;;6.50;;
74177;SDS011;62540;48.456;-4.456;2023-05-18T13:25:27;8.50;;;6.25;;
74177;SDS011;62540;48.456;-4.456;2023-05-18T13:27:52;5.75;;;5.25;;
74177;SDS011;62540;48.456;-4.456;2023-05-18T13:30:19;6.25;;;5.00;;
74177;SDS011;62540;48.456;-4.456;2023-05-18T13:32:45;7.00;;;6.00;;
74177;SDS011;62540;48.456;-4.456;2023-05-18T13:35:11;9.00;;;8.00;;
74177;SDS011;62540;48.456;-4.456;2023-05-18T13:37:37;8.25;;;7.75;;
74177;SDS011;62540;48.456;-4.456;2023-05-18T13:40:03;7.75;;;6.75;;
74177;SDS011;62540;48.456;-4.456;2023-05-18T13:42:29;6.00;;;5.00;;
74177;SDS011;62540;48.456;-4.456;2023-05-18T13:44:54;6.25;;;6.00;;
74177;SDS011;62540;48.456;-4.456;2023-05-18T13:47:19;9.00;;;7.25;;
74177;SDS011;62540;48.456;-4.456;2023-05-18T13:49:45;8.00;;;7.00;;
74177;SDS011;62540;48.456;-4.456;2023-05-18T13:52:10;7.00;;;7.00;;
74177;SDS011;62540;48.456;-4.456;2023-05-18T13:54:36;7.50;;;7.50;;
74177;SDS011;62540;48.456;-4.456;2023-05-18T13:57:02;8.00;;;7.00;;
74177;SDS011;62540;48.456;-4.456;2023-05-18T13:59:29;6.50;;;4.25;;
74177;SDS011;62540;48.456;-4.456;2023-05-18T14:01:59;10.00;;;9.00;;
74177;SDS011;62540;48.456;-4.456;2023-05-18T14:04:27;8.75;;;7.50;;
74177;SDS011;62540;48.456;-4.456;2023-05-18T14:06:52;8.75;;;8.00;;
74177;SDS011;62540;48.456;-4.456;2023-05-18T14:09:20;8.75;;;6.25;;
74177;SDS011;62540;48.456;-4.456;2023-05-18T14:11:46;5.00;;;4.00;;
74177;SDS011;62540;48.456;-4.456;2023-05-18T14:14:11;7.50;;;6.50;;
74177;SDS011;62540;48.456;-4.456;2023-05-18T14:16:37;8.25;;;5.50;;
74177;SDS011;62540;48.456;-4.456;2023-05-18T14:19:02;10.25;;;7.75;;
74177;SDS011;62540;48.456;-4.456;2023-05-18T14:21:27;9.00;;;6.50;;
74177;SDS011;62540;48.456;-4.456;2023-05-18T14:23:53;10.00;;;7.00;;
74177;SDS011;62540;48.456;-4.456;2023-05-18T14:26:18;6.75;;;5.75;;
74177;SDS011;62540;48.456;-4.456;2023-05-18T14:28:44;10.25;;;6.50;;
74177;SDS011;62540;48.456;-4.456;2023-05-18T14:31:10;8.00;;;7.25;;
74177;SDS011;62540;48.456;-4.456;2023-05-18T14:33:35;4.75;;;3.25;;
74177;SDS011;62540;48.456;-4.456;2023-05-18T14:36:01;6.50;;;6.00;;
74177;SDS011;62540;48.456;-4.456;2023-05-18T14:38:26;7.75;;;7.75;;
74177;SDS011;62540;48.456;-4.456;2023-05-18T14:40:52;10.25;;;7.50;;
74177;SDS011;62540;48.456;-4.456;2023-05-18T14:43:17;8.50;;;7.00;;
74177;SDS011;62540;48.456;-4.456;2023-05-18T14:45:43;9.25;;;6.75;;
74177;SDS011;62540;48.456;-4.456;2023-05-18T14:48:08;8.25;;;6.00;;